createdAt,value
2019-02-02T00:00:51.485Z,989.85
2019-02-02T00:01:51.474Z,989.81
2019-02-02T00:02:51.463Z,989.82
2019-02-02T00:03:51.457Z,989.80
2019-02-02T00:04:51.451Z,989.81
2019-02-02T00:05:51.431Z,989.81
2019-02-02T00:06:51.421Z,989.75
2019-02-02T00:07:51.409Z,989.72
2019-02-02T00:08:51.398Z,989.71
2019-02-02T00:09:51.388Z,989.69
2019-02-02T00:10:51.380Z,989.66
2019-02-02T00:11:51.367Z,989.68
2019-02-02T00:12:51.356Z,989.68
2019-02-02T00:13:51.347Z,989.69
2019-02-02T00:14:51.334Z,989.68
2019-02-02T00:15:51.322Z,989.65
2019-02-02T00:16:51.319Z,989.66
2019-02-02T00:17:51.301Z,989.66
2019-02-02T00:18:51.289Z,989.63
2019-02-02T00:19:51.279Z,989.60
2019-02-02T00:20:51.270Z,989.64
2019-02-02T00:21:51.273Z,989.59
2019-02-02T00:22:51.266Z,989.58
2019-02-02T00:23:51.235Z,989.59
2019-02-02T00:24:51.224Z,989.53
2019-02-02T00:25:51.217Z,989.54
2019-02-02T00:26:51.205Z,989.59
2019-02-02T00:27:51.193Z,989.58
2019-02-02T00:28:51.183Z,989.64
2019-02-02T00:29:51.170Z,989.61
2019-02-02T00:30:51.160Z,989.63
2019-02-02T00:31:51.148Z,989.58
2019-02-02T00:32:51.138Z,989.64
2019-02-02T00:33:51.134Z,989.57
2019-02-02T00:34:51.118Z,989.57
2019-02-02T00:35:51.106Z,989.60
2019-02-02T00:36:51.094Z,989.55
2019-02-02T00:37:51.084Z,989.60
2019-02-02T00:38:51.075Z,989.57
2019-02-02T00:39:51.063Z,989.55
2019-02-02T00:40:51.051Z,989.58
2019-02-02T00:41:51.040Z,989.57
2019-02-02T00:42:51.030Z,989.55
2019-02-02T00:43:51.023Z,989.58
2019-02-02T00:44:51.011Z,989.59
2019-02-02T00:45:50.997Z,989.58
2019-02-02T00:46:50.988Z,989.57
2019-02-02T00:47:51.028Z,989.56
2019-02-02T00:48:50.966Z,989.58
2019-02-02T00:49:50.952Z,989.55
2019-02-02T00:50:50.953Z,989.57
2019-02-02T00:51:50.943Z,989.58
2019-02-02T00:52:50.922Z,989.60
2019-02-02T00:53:50.916Z,989.56
2019-02-02T00:54:50.906Z,989.60
2019-02-02T00:55:50.891Z,989.55
2019-02-02T00:56:50.884Z,989.60
2019-02-02T00:57:54.154Z,989.65
2019-02-02T00:58:50.855Z,989.64
2019-02-02T00:59:50.846Z,989.65
2019-02-02T01:00:50.836Z,989.66
2019-02-02T01:01:50.829Z,989.63
2019-02-02T01:02:50.813Z,989.66
2019-02-02T01:03:50.802Z,989.69
2019-02-02T01:04:50.791Z,989.71
2019-02-02T01:05:50.781Z,989.75
2019-02-02T01:06:50.770Z,989.74
2019-02-02T01:07:50.758Z,989.77
2019-02-02T01:08:50.748Z,989.79
2019-02-02T01:09:50.739Z,989.83
2019-02-02T01:10:50.726Z,989.85
2019-02-02T01:11:50.715Z,989.82
2019-02-02T01:12:50.733Z,989.79
2019-02-02T01:13:50.696Z,989.83
2019-02-02T01:14:50.684Z,989.80
2019-02-02T01:15:50.671Z,989.81
2019-02-02T01:16:50.665Z,989.80
2019-02-02T01:17:50.654Z,989.75
2019-02-02T01:18:50.644Z,989.77
2019-02-02T01:19:50.628Z,989.72
2019-02-02T01:20:50.617Z,989.74
2019-02-02T01:21:50.621Z,989.77
2019-02-02T01:22:50.595Z,989.77
2019-02-02T01:23:50.587Z,989.80
2019-02-02T01:24:50.573Z,989.82
2019-02-02T01:25:50.564Z,989.79
2019-02-02T01:26:50.554Z,989.83
2019-02-02T01:27:50.542Z,989.85
2019-02-02T01:28:50.530Z,989.87
2019-02-02T01:29:50.520Z,989.84
2019-02-02T01:30:50.512Z,989.84
2019-02-02T01:31:50.500Z,989.81
2019-02-02T01:32:50.499Z,989.76
2019-02-02T01:33:50.476Z,989.74
2019-02-02T01:34:50.465Z,989.73
2019-02-02T01:35:50.456Z,989.75
2019-02-02T01:36:50.449Z,989.71
2019-02-02T01:37:50.442Z,989.78
2019-02-02T01:38:50.422Z,989.76
2019-02-02T01:39:50.414Z,989.74
2019-02-02T01:40:50.402Z,989.79
2019-02-02T01:41:50.397Z,989.77
2019-02-02T01:42:50.378Z,989.83
2019-02-02T01:43:50.367Z,989.83
2019-02-02T01:44:50.358Z,989.86
2019-02-02T01:45:50.349Z,989.91
2019-02-02T01:46:50.342Z,989.81
2019-02-02T01:47:50.327Z,989.82
2019-02-02T01:48:50.314Z,989.80
2019-02-02T01:49:50.304Z,989.81
2019-02-02T01:50:50.293Z,989.82
2019-02-02T01:51:50.282Z,989.85
2019-02-02T01:52:50.271Z,989.88
2019-02-02T01:53:50.263Z,989.86
2019-02-02T01:54:50.252Z,989.76
2019-02-02T01:55:50.267Z,989.76
2019-02-02T01:56:50.227Z,989.73
2019-02-02T01:57:50.219Z,989.73
2019-02-02T01:58:50.210Z,989.71
2019-02-02T01:59:50.195Z,989.64
2019-02-02T02:00:50.184Z,989.69
2019-02-02T02:01:50.174Z,989.63
2019-02-02T02:02:50.172Z,989.64
2019-02-02T02:03:50.155Z,989.62
2019-02-02T02:04:50.141Z,989.61
2019-02-02T02:05:50.129Z,989.56
2019-02-02T02:06:50.132Z,989.51
2019-02-02T02:07:50.107Z,989.50
2019-02-02T02:08:50.097Z,989.55
2019-02-02T02:09:50.085Z,989.51
2019-02-02T02:10:50.078Z,989.53
2019-02-02T02:11:50.070Z,989.55
2019-02-02T02:12:50.058Z,989.52
2019-02-02T02:13:50.043Z,989.54
2019-02-02T02:14:50.048Z,989.61
2019-02-02T02:15:50.025Z,989.55
2019-02-02T02:16:50.018Z,989.63
2019-02-02T02:17:50.001Z,989.67
2019-02-02T02:18:49.990Z,989.67
2019-02-02T02:19:49.978Z,989.70
2019-02-02T02:20:49.967Z,989.72
2019-02-02T02:21:50.069Z,989.64
2019-02-02T02:22:49.951Z,989.68
2019-02-02T02:23:49.938Z,989.69
2019-02-02T02:24:49.926Z,989.64
2019-02-02T02:25:49.921Z,989.68
2019-02-02T02:26:49.923Z,989.64
2019-02-02T02:27:49.894Z,989.66
2019-02-02T02:28:49.911Z,989.55
2019-02-02T02:29:49.881Z,989.56
2019-02-02T02:30:49.861Z,989.50
2019-02-02T02:31:49.871Z,989.51
2019-02-02T02:32:49.855Z,989.50
2019-02-02T02:33:49.834Z,989.42
2019-02-02T02:34:49.818Z,989.43
2019-02-02T02:35:49.804Z,989.43
2019-02-02T02:36:49.795Z,989.42
2019-02-02T02:37:49.788Z,989.34
2019-02-02T02:38:49.779Z,989.29
2019-02-02T02:39:49.765Z,989.32
2019-02-02T02:41:07.895Z,989.25
2019-02-02T02:42:20.418Z,989.27
2019-02-02T02:43:38.535Z,989.31
2019-02-02T02:45:02.445Z,989.34
2019-02-02T02:46:02.428Z,989.23
2019-02-02T02:47:02.425Z,989.32
2019-02-02T02:48:02.406Z,989.33
2019-02-02T02:49:02.396Z,989.39
2019-02-02T02:50:02.384Z,989.43
2019-02-02T02:51:02.370Z,989.41
2019-02-02T02:52:02.362Z,989.32
2019-02-02T02:53:02.355Z,989.31
2019-02-02T02:54:02.336Z,989.31
2019-02-02T02:55:02.325Z,989.33
2019-02-02T02:56:02.315Z,989.29
2019-02-02T02:57:02.304Z,989.31
2019-02-02T02:58:02.292Z,989.39
2019-02-02T02:59:02.283Z,989.42
2019-02-02T03:00:02.274Z,989.44
2019-02-02T03:01:02.261Z,989.45
2019-02-02T03:02:02.248Z,989.45
2019-02-02T03:03:02.239Z,989.40
2019-02-02T03:04:02.339Z,989.36
2019-02-02T03:05:02.221Z,989.30
2019-02-02T03:06:02.204Z,989.24
2019-02-02T03:07:02.194Z,989.18
2019-02-02T03:08:02.185Z,989.19
2019-02-02T03:09:02.176Z,989.21
2019-02-02T03:10:02.168Z,989.16
2019-02-02T03:11:02.155Z,989.14
2019-02-02T03:12:02.139Z,989.17
2019-02-02T03:13:02.128Z,989.17
2019-02-02T03:14:02.117Z,989.19
2019-02-02T03:15:02.107Z,989.14
2019-02-02T03:16:02.096Z,989.07
2019-02-02T03:17:02.089Z,988.99
2019-02-02T03:18:02.079Z,988.97
2019-02-02T03:19:02.064Z,988.96
2019-02-02T03:20:02.052Z,988.99
2019-02-02T03:21:02.042Z,989.05
2019-02-02T03:22:02.030Z,989.02
2019-02-02T03:23:02.018Z,989.07
2019-02-02T03:24:02.014Z,989.12
2019-02-02T03:25:02.005Z,989.09
2019-02-02T03:26:01.989Z,989.14
2019-02-02T03:27:01.978Z,989.06
2019-02-02T03:28:01.964Z,989.04
2019-02-02T03:29:01.953Z,989.02
2019-02-02T03:30:01.942Z,988.98
2019-02-02T03:31:01.937Z,989.01
2019-02-02T03:32:01.922Z,989.01
2019-02-02T03:33:01.940Z,989.01
2019-02-02T03:34:01.902Z,989.02
2019-02-02T03:35:01.890Z,988.99
2019-02-02T03:36:01.878Z,988.98
2019-02-02T03:37:01.866Z,989.00
2019-02-02T03:38:01.858Z,988.97
2019-02-02T03:39:01.850Z,988.94
2019-02-02T03:40:01.835Z,988.98
2019-02-02T03:41:01.826Z,988.96
2019-02-02T03:42:01.827Z,989.04
2019-02-02T03:43:01.804Z,989.04
2019-02-02T03:44:01.788Z,989.02
2019-02-02T03:45:01.781Z,989.04
2019-02-02T03:46:01.767Z,989.07
2019-02-02T03:47:01.760Z,989.09
2019-02-02T03:48:01.747Z,989.06
2019-02-02T03:49:01.737Z,989.09
2019-02-02T03:50:01.724Z,989.13
2019-02-02T03:51:01.724Z,989.06
2019-02-02T03:52:01.701Z,989.10
2019-02-02T03:53:01.692Z,989.12
2019-02-02T03:54:08.821Z,989.12
2019-02-02T03:55:02.676Z,989.09
2019-02-02T03:56:01.658Z,989.14
2019-02-02T03:57:01.646Z,989.14
2019-02-02T03:58:01.636Z,989.19
2019-02-02T03:59:06.719Z,989.20
2019-02-02T04:00:02.614Z,989.21
2019-02-02T04:01:01.608Z,989.24
2019-02-02T04:02:01.591Z,989.22
2019-02-02T04:03:01.580Z,989.24
2019-02-02T04:04:01.570Z,989.24
2019-02-02T04:05:01.560Z,989.22
2019-02-02T04:06:01.547Z,989.19
2019-02-02T04:07:01.536Z,989.16
2019-02-02T04:08:01.526Z,989.18
2019-02-02T04:09:01.518Z,989.19
2019-02-02T04:10:01.505Z,989.25
2019-02-02T04:11:01.497Z,989.30
2019-02-02T04:12:01.487Z,989.31
2019-02-02T04:13:01.474Z,989.30
2019-02-02T04:14:01.461Z,989.26
2019-02-02T04:15:01.452Z,989.26
2019-02-02T04:16:01.438Z,989.24
2019-02-02T04:17:01.429Z,989.23
2019-02-02T04:18:01.423Z,989.16
2019-02-02T04:19:01.408Z,989.12
2019-02-02T04:20:01.395Z,989.15
2019-02-02T04:21:01.387Z,989.12
2019-02-02T04:22:01.373Z,989.08
2019-02-02T04:23:20.994Z,989.08
2019-02-02T04:24:42.908Z,989.17
2019-02-02T04:25:42.890Z,989.22
2019-02-02T04:26:42.879Z,989.23
2019-02-02T04:27:42.869Z,989.30
2019-02-02T04:29:01.001Z,989.33
2019-02-02T04:30:24.405Z,989.32
2019-02-02T04:31:24.415Z,989.23
2019-02-02T04:33:05.939Z,989.24
2019-02-02T04:34:05.943Z,989.16
2019-02-02T04:35:05.915Z,989.12
2019-02-02T04:36:05.928Z,989.06
2019-02-02T04:37:05.905Z,989.03
2019-02-02T04:38:05.881Z,989.05
2019-02-02T04:39:05.872Z,989.04
2019-02-02T04:40:05.861Z,989.06
2019-02-02T04:41:05.846Z,989.03
2019-02-02T04:42:05.835Z,989.09
2019-02-02T04:43:05.827Z,989.16
2019-02-02T04:44:05.818Z,989.22
2019-02-02T04:45:05.803Z,989.28
2019-02-02T04:46:05.791Z,989.26
2019-02-02T04:47:05.787Z,989.33
2019-02-02T04:48:05.769Z,989.33
2019-02-02T04:49:05.759Z,989.35
2019-02-02T04:50:05.769Z,989.38
2019-02-02T04:51:05.737Z,989.34
2019-02-02T04:52:05.729Z,989.32
2019-02-02T04:53:05.715Z,989.26
2019-02-02T04:54:05.704Z,989.29
2019-02-02T04:55:05.695Z,989.30
2019-02-02T04:56:05.686Z,989.24
2019-02-02T04:57:05.672Z,989.19
2019-02-02T04:58:05.661Z,989.22
2019-02-02T05:00:32.602Z,989.15
2019-02-02T05:01:53.237Z,989.10
2019-02-02T05:03:15.147Z,988.96
2019-02-02T05:04:33.259Z,988.91
2019-02-02T05:05:56.672Z,988.84
2019-02-02T05:07:14.793Z,988.77
2019-02-02T05:08:38.201Z,988.73
2019-02-02T05:09:38.203Z,988.70
2019-02-02T05:11:19.756Z,988.76
2019-02-02T05:12:19.716Z,988.77
2019-02-02T05:14:01.256Z,988.75
2019-02-02T05:15:01.244Z,988.74
2019-02-02T05:16:42.784Z,988.75
2019-02-02T05:17:42.771Z,988.75
2019-02-02T05:19:24.318Z,988.75
2019-02-02T05:20:24.301Z,988.73
2019-02-02T05:21:54.772Z,988.79
2019-02-02T05:22:54.755Z,988.84
2019-02-02T05:24:36.787Z,988.99
2019-02-02T05:25:36.774Z,988.97
2019-02-02T05:26:36.765Z,988.98
2019-02-02T05:27:36.754Z,989.02
2019-02-02T05:28:36.747Z,989.03
2019-02-02T05:29:41.538Z,988.98
2019-02-02T05:30:37.720Z,989.10
2019-02-02T05:31:36.710Z,989.11
2019-02-02T05:32:36.699Z,989.11
2019-02-02T05:33:36.689Z,989.13
2019-02-02T05:34:36.678Z,989.10
2019-02-02T05:35:36.666Z,989.10
2019-02-02T05:36:36.662Z,989.06
2019-02-02T05:37:36.644Z,988.99
2019-02-02T05:38:36.634Z,989.04
2019-02-02T05:39:36.623Z,988.95
2019-02-02T05:40:36.738Z,988.88
2019-02-02T05:41:36.609Z,988.78
2019-02-02T05:42:36.593Z,988.71
2019-02-02T05:43:36.581Z,988.65
2019-02-02T05:44:36.570Z,988.66
2019-02-02T05:45:36.563Z,988.71
2019-02-02T05:46:36.548Z,988.76
2019-02-02T05:47:36.536Z,988.80
2019-02-02T05:48:36.525Z,988.86
2019-02-02T05:49:36.517Z,988.92
2019-02-02T05:50:36.505Z,988.89
2019-02-02T05:51:36.494Z,988.90
2019-02-02T05:52:36.482Z,988.89
2019-02-02T05:53:36.471Z,988.87
2019-02-02T05:54:36.461Z,988.84
2019-02-02T05:55:36.449Z,988.88
2019-02-02T05:56:36.438Z,988.90
2019-02-02T05:57:36.429Z,988.91
2019-02-02T05:58:36.416Z,988.98
2019-02-02T05:59:36.406Z,989.03
2019-02-02T06:00:36.394Z,989.05
2019-02-02T06:01:36.385Z,989.10
2019-02-02T06:02:36.408Z,989.19
2019-02-02T06:03:36.366Z,989.25
2019-02-02T06:04:55.978Z,989.27
2019-02-02T06:06:18.385Z,989.32
2019-02-02T06:07:38.010Z,989.26
2019-02-02T06:09:00.406Z,989.34
2019-02-02T06:11:28.334Z,989.33
2019-02-02T06:13:56.278Z,989.32
2019-02-02T06:14:56.263Z,989.31
2019-02-02T06:15:56.252Z,989.30
2019-02-02T06:16:56.243Z,989.22
2019-02-02T06:17:56.232Z,989.29
2019-02-02T06:18:56.222Z,989.29
2019-02-02T06:19:56.215Z,989.29
2019-02-02T06:20:56.197Z,989.26
2019-02-02T06:21:56.186Z,989.30
2019-02-02T06:22:56.186Z,989.35
2019-02-02T06:23:56.163Z,989.37
2019-02-02T06:24:56.200Z,989.36
2019-02-02T06:25:56.145Z,989.34
2019-02-02T06:26:56.131Z,989.36
2019-02-02T06:27:56.120Z,989.28
2019-02-02T06:28:56.193Z,989.37
2019-02-02T06:30:04.028Z,989.40
2019-02-02T06:30:59.704Z,989.49
2019-02-02T06:31:56.079Z,989.44
2019-02-02T06:32:56.067Z,989.52
2019-02-02T06:33:56.059Z,989.55
2019-02-02T06:34:56.047Z,989.53
2019-02-02T06:35:56.032Z,989.47
2019-02-02T06:36:56.025Z,989.49
2019-02-02T06:37:56.032Z,989.47
2019-02-02T06:38:55.998Z,989.48
2019-02-02T06:39:55.991Z,989.55
2019-02-02T06:40:55.979Z,989.53
2019-02-02T06:41:55.966Z,989.50
2019-02-02T06:42:55.955Z,989.56
2019-02-02T06:43:55.944Z,989.59
2019-02-02T06:44:55.933Z,989.61
2019-02-02T06:45:55.924Z,989.58
2019-02-02T06:46:55.911Z,989.58
2019-02-02T06:47:55.904Z,989.56
2019-02-02T06:48:55.889Z,989.59
2019-02-02T06:49:55.880Z,989.56
2019-02-02T06:50:55.868Z,989.62
2019-02-02T06:51:55.858Z,989.63
2019-02-02T06:52:55.846Z,989.59
2019-02-02T06:53:55.835Z,989.55
2019-02-02T06:54:55.831Z,989.53
2019-02-02T06:55:55.812Z,989.49
2019-02-02T06:56:55.805Z,989.48
2019-02-02T06:57:55.789Z,989.46
2019-02-02T06:58:55.781Z,989.48
2019-02-02T06:59:55.767Z,989.38
2019-02-02T07:00:55.759Z,989.32
2019-02-02T07:01:55.747Z,989.27
2019-02-02T07:02:55.785Z,989.28
2019-02-02T07:03:55.727Z,989.27
2019-02-02T07:04:55.718Z,989.28
2019-02-02T07:05:55.702Z,989.22
2019-02-02T07:06:55.692Z,989.20
2019-02-02T07:07:55.680Z,989.18
2019-02-02T07:08:55.673Z,989.16
2019-02-02T07:09:55.658Z,989.18
2019-02-02T07:10:55.647Z,989.25
2019-02-02T07:11:55.637Z,989.25
2019-02-02T07:12:55.626Z,989.26
2019-02-02T07:13:55.619Z,989.31
2019-02-02T07:14:55.602Z,989.36
2019-02-02T07:15:55.592Z,989.37
2019-02-02T07:16:55.586Z,989.39
2019-02-02T07:17:55.570Z,989.33
2019-02-02T07:18:55.559Z,989.33
2019-02-02T07:19:55.549Z,989.33
2019-02-02T07:20:55.538Z,989.35
2019-02-02T07:21:55.526Z,989.41
2019-02-02T07:22:55.516Z,989.40
2019-02-02T07:23:55.505Z,989.40
2019-02-02T07:24:55.493Z,989.49
2019-02-02T07:25:55.543Z,989.49
2019-02-02T07:26:55.471Z,989.50
2019-02-02T07:27:55.466Z,989.55
2019-02-02T07:28:55.465Z,989.57
2019-02-02T07:29:55.440Z,989.63
2019-02-02T07:30:55.432Z,989.67
2019-02-02T07:31:55.417Z,989.69
2019-02-02T07:32:55.406Z,989.68
2019-02-02T07:33:55.397Z,989.71
2019-02-02T07:34:55.389Z,989.75
2019-02-02T07:35:55.372Z,989.76
2019-02-02T07:36:55.361Z,989.76
2019-02-02T07:37:55.354Z,989.74
2019-02-02T07:38:55.339Z,989.78
2019-02-02T07:39:55.328Z,989.75
2019-02-02T07:40:55.317Z,989.77
2019-02-02T07:41:55.308Z,989.77
2019-02-02T07:42:55.297Z,989.78
2019-02-02T07:43:55.284Z,989.75
2019-02-02T07:44:55.275Z,989.74
2019-02-02T07:45:55.262Z,989.80
2019-02-02T07:46:55.255Z,989.80
2019-02-02T07:47:55.244Z,989.85
2019-02-02T07:48:55.233Z,989.91
2019-02-02T07:49:55.218Z,989.92
2019-02-02T07:50:55.207Z,989.98
2019-02-02T07:51:55.197Z,989.98
2019-02-02T07:52:55.190Z,990.04
2019-02-02T07:53:55.175Z,990.00
2019-02-02T07:54:55.166Z,990.09
2019-02-02T07:55:55.164Z,990.16
2019-02-02T07:56:55.142Z,990.14
2019-02-02T07:57:55.134Z,990.10
2019-02-02T07:58:55.120Z,990.03
2019-02-02T07:59:55.111Z,989.97
2019-02-02T08:00:55.099Z,989.97
2019-02-02T08:01:55.088Z,989.92
2019-02-02T08:02:55.093Z,989.97
2019-02-02T08:03:55.065Z,989.96
2019-02-02T08:05:13.201Z,989.97
2019-02-02T08:06:36.789Z,990.05
2019-02-02T08:07:36.777Z,990.11
2019-02-02T08:09:18.323Z,990.08
2019-02-02T08:10:18.306Z,989.91
2019-02-02T08:11:18.295Z,989.91
2019-02-02T08:12:19.572Z,989.94
2019-02-02T08:13:18.274Z,989.96
2019-02-02T08:14:18.347Z,989.97
2019-02-02T08:15:18.258Z,989.93
2019-02-02T08:16:18.241Z,989.95
2019-02-02T08:17:18.232Z,989.98
2019-02-02T08:18:18.219Z,989.96
2019-02-02T08:19:18.208Z,989.94
2019-02-02T08:20:18.199Z,989.97
2019-02-02T08:21:18.187Z,989.99
2019-02-02T08:22:18.178Z,990.00
2019-02-02T08:23:18.165Z,990.05
2019-02-02T08:24:18.155Z,990.02
2019-02-02T08:25:18.145Z,990.09
2019-02-02T08:26:18.133Z,990.11
2019-02-02T08:27:18.122Z,990.22
2019-02-02T08:28:18.113Z,990.22
2019-02-02T08:29:18.099Z,990.28
2019-02-02T08:30:18.130Z,990.30
2019-02-02T08:31:18.078Z,990.27
2019-02-02T08:32:18.072Z,990.27
2019-02-02T08:33:18.056Z,990.22
2019-02-02T08:34:18.046Z,990.19
2019-02-02T08:35:18.035Z,990.22
2019-02-02T08:36:18.023Z,990.22
2019-02-02T08:37:18.019Z,990.24
2019-02-02T08:38:18.007Z,990.22
2019-02-02T08:39:28.727Z,990.21
2019-02-02T08:40:19.068Z,990.20
2019-02-02T08:41:17.970Z,990.24
2019-02-02T08:42:17.959Z,990.30
2019-02-02T08:43:17.952Z,990.24
2019-02-02T08:44:17.936Z,990.23
2019-02-02T08:45:17.925Z,990.16
2019-02-02T08:46:17.918Z,990.18
2019-02-02T08:47:17.908Z,990.26
2019-02-02T08:48:17.921Z,990.28
2019-02-02T08:49:17.884Z,990.29
2019-02-02T08:50:17.874Z,990.25
2019-02-02T08:51:17.863Z,990.16
2019-02-02T08:52:17.851Z,990.18
2019-02-02T08:53:17.846Z,990.16
2019-02-02T08:54:17.845Z,990.26
2019-02-02T08:55:17.826Z,990.26
2019-02-02T08:56:17.809Z,990.27
2019-02-02T08:57:17.814Z,990.24
2019-02-02T08:58:17.797Z,990.28
2019-02-02T08:59:17.778Z,990.24
2019-02-02T09:00:17.762Z,990.26
2019-02-02T09:01:17.751Z,990.27
2019-02-02T09:02:17.741Z,990.27
2019-02-02T09:03:17.748Z,990.30
2019-02-02T09:04:17.725Z,990.36
2019-02-02T09:05:17.729Z,990.38
2019-02-02T09:06:17.699Z,990.42
2019-02-02T09:07:17.687Z,990.49
2019-02-02T09:08:17.677Z,990.50
2019-02-02T09:09:17.667Z,990.48
2019-02-02T09:10:17.657Z,990.45
2019-02-02T09:11:17.644Z,990.45
2019-02-02T09:12:17.642Z,990.47
2019-02-02T09:13:17.622Z,990.55
2019-02-02T09:14:17.614Z,990.54
2019-02-02T09:15:17.603Z,990.56
2019-02-02T09:16:17.593Z,990.53
2019-02-02T09:17:17.585Z,990.48
2019-02-02T09:18:17.572Z,990.42
2019-02-02T09:19:17.561Z,990.42
2019-02-02T09:20:17.546Z,990.46
2019-02-02T09:21:17.545Z,990.56
2019-02-02T09:22:17.524Z,990.57
2019-02-02T09:23:17.515Z,990.60
2019-02-02T09:24:17.508Z,990.58
2019-02-02T09:25:17.492Z,990.60
2019-02-02T09:26:17.481Z,990.66
2019-02-02T09:27:17.475Z,990.72
2019-02-02T09:28:17.463Z,990.72
2019-02-02T09:29:17.452Z,990.81
2019-02-02T09:30:17.442Z,990.76
2019-02-02T09:31:17.429Z,990.74
2019-02-02T09:32:17.418Z,990.72
2019-02-02T09:33:17.407Z,990.66
2019-02-02T09:34:17.398Z,990.69
2019-02-02T09:35:17.383Z,990.69
2019-02-02T09:36:17.382Z,990.62
2019-02-02T09:37:17.362Z,990.72
2019-02-02T09:38:17.352Z,990.72
2019-02-02T09:39:17.340Z,990.77
2019-02-02T09:40:17.329Z,990.81
2019-02-02T09:41:17.318Z,990.75
2019-02-02T09:42:17.307Z,990.71
2019-02-02T09:43:17.296Z,990.66
2019-02-02T09:44:17.285Z,990.68
2019-02-02T09:45:17.277Z,990.64
2019-02-02T09:46:17.265Z,990.65
2019-02-02T09:47:20.079Z,990.67
2019-02-02T09:48:17.241Z,990.68
2019-02-02T09:49:17.229Z,990.69
2019-02-02T09:50:17.220Z,990.72
2019-02-02T09:51:17.212Z,990.71
2019-02-02T09:52:17.200Z,990.73
2019-02-02T09:53:17.270Z,990.76
2019-02-02T09:54:26.363Z,990.72
2019-02-02T09:55:18.169Z,990.72
2019-02-02T09:56:17.153Z,990.73
2019-02-02T09:57:17.260Z,990.74
2019-02-02T09:58:17.131Z,990.72
2019-02-02T09:59:17.122Z,990.77
2019-02-02T10:00:17.119Z,990.77
2019-02-02T10:01:27.322Z,990.78
2019-02-02T10:02:18.095Z,990.80
2019-02-02T10:03:17.080Z,990.76
2019-02-02T10:04:17.071Z,990.81
2019-02-02T10:05:19.051Z,990.81
2019-02-02T10:06:17.045Z,990.79
2019-02-02T10:07:17.034Z,990.79
2019-02-02T10:08:17.025Z,990.78
2019-02-02T10:09:17.018Z,990.76
2019-02-02T10:11:18.551Z,990.77
2019-02-02T10:12:20.955Z,990.80
2019-02-02T10:14:01.575Z,990.86
2019-02-02T10:15:01.556Z,990.78
2019-02-02T10:16:01.552Z,990.76
2019-02-02T10:17:01.533Z,990.73
2019-02-02T10:18:01.523Z,990.74
2019-02-02T10:19:01.511Z,990.71
2019-02-02T10:20:01.533Z,990.77
2019-02-02T10:21:04.016Z,990.80
2019-02-02T10:22:01.479Z,990.80
2019-02-02T10:23:01.468Z,990.87
2019-02-02T10:24:01.459Z,990.91
2019-02-02T10:25:01.444Z,990.90
2019-02-02T10:26:01.435Z,990.87
2019-02-02T10:27:01.422Z,990.84
2019-02-02T10:28:01.416Z,990.86
2019-02-02T10:29:01.404Z,990.78
2019-02-02T10:30:01.391Z,990.82
2019-02-02T10:31:01.379Z,990.84
2019-02-02T10:32:01.368Z,990.87
2019-02-02T10:33:01.363Z,990.81
2019-02-02T10:34:01.514Z,990.75
2019-02-02T10:35:01.337Z,990.77
2019-02-02T10:36:01.324Z,990.79
2019-02-02T10:37:01.319Z,990.75
2019-02-02T10:38:01.300Z,990.75
2019-02-02T10:39:01.289Z,990.73
2019-02-02T10:40:01.286Z,990.71
2019-02-02T10:41:01.271Z,990.73
2019-02-02T10:42:01.259Z,990.75
2019-02-02T10:43:01.249Z,990.76
2019-02-02T10:44:01.656Z,990.80
2019-02-02T10:45:01.226Z,990.76
2019-02-02T10:46:01.217Z,990.78
2019-02-02T10:47:03.508Z,990.78
2019-02-02T10:48:01.191Z,990.84
2019-02-02T10:49:01.201Z,990.82
2019-02-02T10:50:01.172Z,990.82
2019-02-02T10:51:01.177Z,990.80
2019-02-02T10:52:01.146Z,990.81
2019-02-02T10:53:01.135Z,990.85
2019-02-02T10:54:01.124Z,990.85
2019-02-02T10:55:01.119Z,990.92
2019-02-02T10:56:01.101Z,990.87
2019-02-02T10:57:01.098Z,990.89
2019-02-02T10:58:01.083Z,990.90
2019-02-02T10:59:01.068Z,990.88
2019-02-02T11:00:01.060Z,990.88
2019-02-02T11:01:01.046Z,990.91
2019-02-02T11:02:01.042Z,990.89
2019-02-02T11:03:01.031Z,990.89
2019-02-02T11:04:01.014Z,990.89
2019-02-02T11:05:01.038Z,990.90
2019-02-02T11:06:00.992Z,990.85
2019-02-02T11:07:01.018Z,990.82
2019-02-02T11:08:00.973Z,990.81
2019-02-02T11:09:00.988Z,990.84
2019-02-02T11:10:01.624Z,990.81
2019-02-02T11:11:00.979Z,990.88
2019-02-02T11:12:01.132Z,990.86
2019-02-02T11:13:00.933Z,990.82
2019-02-02T11:14:00.986Z,990.84
2019-02-02T11:15:02.108Z,990.87
2019-02-02T11:16:00.941Z,990.83
2019-02-02T11:20:51.148Z,990.83
2019-02-02T11:21:51.103Z,990.85
2019-02-02T11:22:51.065Z,990.79
2019-02-02T11:23:51.115Z,990.76
2019-02-02T11:24:50.921Z,990.82
2019-02-02T11:25:51.070Z,990.80
2019-02-02T11:26:50.971Z,990.77
2019-02-02T11:27:50.887Z,990.82
2019-02-02T11:29:09.467Z,990.84
2019-02-02T11:30:34.073Z,990.82
2019-02-02T11:39:48.559Z,990.69
2019-02-02T11:41:08.255Z,990.67
2019-02-02T11:42:30.594Z,990.67
2019-02-02T11:43:50.379Z,990.65
2019-02-02T11:45:12.622Z,990.61
2019-02-02T11:46:12.611Z,990.63
2019-02-02T11:47:12.601Z,990.63
2019-02-02T11:48:15.002Z,990.62
2019-02-02T11:49:12.587Z,990.66
2019-02-02T11:50:12.576Z,990.71
2019-02-02T11:51:12.570Z,990.72
2019-02-02T11:52:12.541Z,990.73
2019-02-02T11:53:12.528Z,990.73
2019-02-02T11:54:12.517Z,990.70
2019-02-02T11:55:12.505Z,990.68
2019-02-02T11:56:12.494Z,990.67
2019-02-02T12:00:16.403Z,990.71
2019-02-02T12:01:14.742Z,990.72
2019-02-02T12:02:15.035Z,990.72
2019-02-02T12:03:14.683Z,990.77
2019-02-02T12:04:14.680Z,990.81
2019-02-02T12:05:14.667Z,990.89
2019-02-02T12:06:14.651Z,990.95
2019-02-02T12:07:14.642Z,990.95
2019-02-02T12:08:14.630Z,990.95
2019-02-02T12:09:14.621Z,991.03
2019-02-02T12:10:14.613Z,991.07
2019-02-02T12:11:14.600Z,991.04
2019-02-02T12:12:14.587Z,991.00
2019-02-02T12:13:14.582Z,990.96
2019-02-02T12:14:14.569Z,990.96
2019-02-02T12:15:14.559Z,990.96
2019-02-02T12:16:14.544Z,990.96
2019-02-02T12:17:14.532Z,990.99
2019-02-02T12:18:14.525Z,990.99
2019-02-02T12:19:14.509Z,991.08
2019-02-02T12:20:14.502Z,991.11
2019-02-02T12:21:14.490Z,991.13
2019-02-02T12:22:14.481Z,991.08
2019-02-02T12:23:14.474Z,991.06
2019-02-02T12:24:16.314Z,991.01
2019-02-02T12:25:14.444Z,990.98
2019-02-02T12:26:14.511Z,990.99
2019-02-02T12:27:14.426Z,990.95
2019-02-02T12:28:14.411Z,990.94
2019-02-02T12:29:14.402Z,990.95
2019-02-02T12:30:14.391Z,990.97
2019-02-02T12:31:14.378Z,990.93
2019-02-02T12:32:25.887Z,990.99
2019-02-02T12:33:15.358Z,990.99
2019-02-02T12:34:14.347Z,990.98
2019-02-02T12:35:14.341Z,990.99
2019-02-02T12:36:14.325Z,990.97
2019-02-02T12:37:14.357Z,990.95
2019-02-02T12:38:14.303Z,990.94
2019-02-02T12:39:14.299Z,990.91
2019-02-02T12:40:14.279Z,990.90
2019-02-02T12:41:14.292Z,990.86
2019-02-02T12:42:14.264Z,990.88
2019-02-02T12:43:14.248Z,990.86
2019-02-02T12:44:14.240Z,990.86
2019-02-02T12:45:14.224Z,990.86
2019-02-02T12:46:14.212Z,990.80
2019-02-02T12:47:14.203Z,990.83
2019-02-02T12:48:14.190Z,990.80
2019-02-02T12:49:14.184Z,990.79
2019-02-02T12:50:14.293Z,990.81
2019-02-02T12:51:14.168Z,990.80
2019-02-02T12:52:14.146Z,990.82
2019-02-02T12:53:14.156Z,990.84
2019-02-02T12:54:14.139Z,990.86
2019-02-02T12:55:14.117Z,990.87
2019-02-02T12:56:14.118Z,990.87
2019-02-02T12:57:14.101Z,990.90
2019-02-02T12:58:14.197Z,990.88
2019-02-02T12:59:14.069Z,990.89
2019-02-02T13:00:14.059Z,990.92
2019-02-02T13:01:14.052Z,990.91
2019-02-02T13:02:14.036Z,990.89
2019-02-02T13:03:14.031Z,990.92
2019-02-02T13:04:14.038Z,991.00